Time;durP1;ratioP1;P1;durP2;ratioP2;P2;SDS_P1;SDS_P2;PMS_P1;PMS_P2;Temp;Humidity;BMP_temperature;BMP_pressure;BME280_temperature;BME280_humidity;BME280_pressure;Samples;Min_cycle;Max_cycle;Signal;HPM_P1;HPM_P2
2023/04/10 00:00:23;;;;;;;;;11.00;8.67;;;;;16.56;61.23;101634.31;5035611;28;45915;-69
2023/04/10 00:02:48;;;;;;;;;13.33;12.00;;;;;16.54;61.23;101629.00;5035168;28;46191;-69
2023/04/10 00:05:14;;;;;;;;;10.00;9.00;;;;;16.53;61.29;101635.22;5034887;28;64082;-68
2023/04/10 00:07:39;;;;;;;;;16.33;9.67;;;;;16.53;61.22;101621.88;5035165;28;45570;-68
2023/04/10 00:10:05;;;;;;;;;12.33;9.67;;;;;16.54;61.24;101621.00;5034477;28;46522;-68
2023/04/10 00:12:30;;;;;;;;;12.33;10.67;;;;;16.55;61.34;101628.09;5035207;28;45305;-69
2023/04/10 00:14:55;;;;;;;;;10.00;9.33;;;;;16.52;61.68;101627.22;5034945;28;53354;-69
2023/04/10 00:17:21;;;;;;;;;11.00;11.00;;;;;16.50;61.71;101613.88;5035524;28;45436;-69
2023/04/10 00:19:46;;;;;;;;;11.00;10.33;;;;;16.51;61.46;101618.31;5033443;28;71385;-69
2023/04/10 00:22:11;;;;;;;;;13.33;10.33;;;;;16.50;61.79;101611.22;5030153;28;66359;-69
2023/04/10 00:24:37;;;;;;;;;12.00;12.00;;;;;16.49;61.54;101610.31;5033565;28;61887;-69
2023/04/10 00:27:02;;;;;;;;;10.67;9.00;;;;;16.51;61.46;101615.63;5034280;28;61757;-69
2023/04/10 00:29:28;;;;;;;;;8.67;8.00;;;;;16.52;61.49;101612.13;5027953;28;50189;-70
2023/04/10 00:31:53;;;;;;;;;10.00;10.00;;;;;16.51;61.32;101604.97;5035193;28;45566;-70
2023/04/10 00:34:18;;;;;;;;;8.33;8.33;;;;;16.52;61.46;101603.22;5034141;28;63175;-68
2023/04/10 00:36:45;;;;;;;;;11.00;11.00;;;;;16.49;61.46;101602.31;5037532;28;63435;-69
2023/04/10 00:39:11;;;;;;;;;9.33;9.33;;;;;16.50;61.41;101601.44;5030106;28;46370;-69
2023/04/10 00:41:37;;;;;;;;;11.67;10.00;;;;;16.46;61.25;101588.13;5038479;28;45404;-70
2023/04/10 00:44:02;;;;;;;;;11.67;11.00;;;;;16.49;61.31;101596.09;5037709;28;45344;-69
2023/04/10 00:46:28;;;;;;;;;10.33;9.67;;;;;16.46;61.37;101582.81;5015177;28;50241;-68
2023/04/10 00:48:55;;;;;;;;;12.67;10.33;;;;;16.48;61.15;101581.00;5015763;28;65498;-69
2023/04/10 00:51:21;;;;;;;;;9.67;9.67;;;;;16.46;61.56;101580.13;5038109;28;45261;-69
2023/04/10 00:53:49;;;;;;;;;10.00;10.00;;;;;16.42;61.48;101581.03;5038496;28;45325;-69
2023/04/10 00:56:18;;;;;;;;;11.00;8.67;;;;;16.43;61.32;101574.78;5037824;28;45310;-68
2023/04/10 00:58:43;;;;;;;;;10.00;9.00;;;;;16.40;61.39;101565.00;5013157;28;47674;-69
2023/04/10 01:01:09;;;;;;;;;8.33;8.33;;;;;16.41;61.29;101565.94;5037023;28;45365;-69
2023/04/10 01:03:35;;;;;;;;;11.00;9.67;;;;;16.42;61.22;101560.59;5037198;28;45963;-68
2023/04/10 01:06:16;;;;;;;;;11.33;10.00;;;;;16.40;61.19;101561.47;5038538;28;45479;-70
2023/04/10 01:09:03;;;;;;;;;10.67;9.00;;;;;16.40;61.17;101566.78;5037618;28;47230;-69
2023/04/10 01:12:11;;;;;;;;;11.33;10.00;;;;;16.37;61.33;101559.69;5038077;28;45206;-69
2023/04/10 01:14:57;;;;;;;;;11.00;10.00;;;;;16.36;61.66;101562.38;5027308;28;45617;-68
2023/04/10 01:17:57;;;;;;;;;8.33;8.33;;;;;16.34;61.35;101551.69;5035231;28;45570;-69
2023/04/10 01:20:28;;;;;;;;;7.00;7.00;;;;;16.32;61.45;101555.25;5017155;28;46452;-69
2023/04/10 01:23:12;;;;;;;;;8.67;7.67;;;;;16.31;61.31;101558.81;5027692;28;45371;-69
2023/04/10 01:25:40;;;;;;;;;9.67;8.00;;;;;16.32;61.26;101560.59;5037710;28;45973;-69
2023/04/10 01:28:21;;;;;;;;;11.00;10.00;;;;;16.31;61.45;101554.38;5037669;28;45505;-69
2023/04/10 01:30:48;;;;;;;;;10.67;10.33;;;;;16.31;61.29;101548.16;5036731;28;46749;-68
2023/04/10 01:33:18;;;;;;;;;11.67;10.67;;;;;16.30;61.51;101552.63;5037551;28;45418;-70
2023/04/10 01:35:55;;;;;;;;;11.00;9.00;;;;;16.29;61.48;101549.94;5019808;28;45341;-68
2023/04/10 01:38:23;;;;;;;;;8.00;8.00;;;;;16.26;61.52;101541.94;5010203;28;45569;-68
2023/04/10 01:40:51;;;;;;;;;8.00;7.00;;;;;16.24;61.68;101536.59;5016860;28;46819;-69
2023/04/10 01:43:17;;;;;;;;;9.00;8.00;;;;;16.23;61.89;101538.38;5037378;28;45422;-68
2023/04/10 01:45:44;;;;;;;;;9.33;8.00;;;;;16.20;62.04;101526.84;5014876;28;66176;-69
2023/04/10 01:48:09;;;;;;;;;9.00;9.00;;;;;16.21;62.13;101537.50;5016000;28;46109;-69
2023/04/10 01:50:35;;;;;;;;;8.67;8.67;;;;;16.16;62.13;101527.75;5023387;28;72896;-69
2023/04/10 01:53:02;;;;;;;;;8.00;8.00;;;;;16.15;62.28;101526.84;5018152;28;45331;-69
2023/04/10 01:55:28;;;;;;;;;10.00;8.33;;;;;16.13;62.32;101522.41;5019644;28;45452;-68
2023/04/10 01:57:54;;;;;;;;;12.67;9.33;;;;;16.14;61.90;101525.09;5018827;28;45575;-68
2023/04/10 02:00:20;;;;;;;;;8.00;8.00;;;;;16.15;62.37;101518.88;5037610;28;46553;-68
2023/04/10 02:02:45;;;;;;;;;8.00;8.00;;;;;16.12;62.34;101517.97;5036829;28;56525;-69
2023/04/10 02:05:10;;;;;;;;;8.00;8.00;;;;;16.12;62.46;101521.53;5037105;28;45244;-69
2023/04/10 02:07:41;;;;;;;;;9.67;9.67;;;;;16.12;62.69;101517.97;5036746;28;46280;-69
2023/04/10 02:10:20;;;;;;;;;10.00;8.33;;;;;16.11;62.60;101517.09;5037134;28;45597;-69
2023/04/10 02:12:52;;;;;;;;;10.00;9.00;;;;;16.11;62.37;101519.75;5018376;28;45499;-68
2023/04/10 02:15:19;;;;;;;;;8.00;7.00;;;;;16.06;62.65;101505.53;5018807;28;45347;-69
2023/04/10 02:17:45;;;;;;;;;10.00;9.00;;;;;16.09;62.43;101513.53;5019035;28;45495;-69
2023/04/10 02:20:11;;;;;;;;;10.33;8.67;;;;;16.07;62.67;101499.31;5018528;28;67785;-69
2023/04/10 02:22:42;;;;;;;;;11.67;11.67;;;;;16.08;62.46;101503.75;5017523;28;64553;-69
2023/04/10 02:25:08;;;;;;;;;13.00;8.67;;;;;16.08;62.45;101500.19;5036408;28;45348;-69
2023/04/10 02:27:34;;;;;;;;;11.00;9.67;;;;;16.06;62.45;101494.00;5036504;28;45302;-69
2023/04/10 02:30:02;;;;;;;;;9.00;6.33;;;;;16.06;62.38;101502.88;5037130;28;46762;-69
2023/04/10 02:32:28;;;;;;;;;11.67;10.00;;;;;16.04;61.93;101486.03;5036289;28;45292;-70
2023/04/10 02:34:54;;;;;;;;;10.67;7.67;;;;;16.05;62.00;101492.22;5037070;28;45654;-68
2023/04/10 02:37:19;;;;;;;;;7.00;7.00;;;;;16.00;61.92;101481.56;5036677;28;45304;-69
2023/04/10 02:39:44;;;;;;;;;7.67;6.67;;;;;16.01;61.80;101480.69;5036243;28;46760;-69
2023/04/10 02:42:10;;;;;;;;;9.67;8.67;;;;;15.97;61.71;101482.44;5036307;28;45164;-69
2023/04/10 02:44:36;;;;;;;;;8.00;8.00;;;;;15.95;61.93;101486.03;5036694;28;45427;-69
2023/04/10 02:47:01;;;;;;;;;9.67;8.00;;;;;15.91;61.78;101478.91;5018713;28;45588;-69
2023/04/10 02:49:26;;;;;;;;;7.67;7.67;;;;;15.86;61.82;101480.69;5035930;28;68601;-69
2023/04/10 02:51:52;;;;;;;;;6.00;6.00;;;;;15.84;62.22;101483.38;5036281;28;45409;-69
2023/04/10 02:54:17;;;;;;;;;9.67;8.00;;;;;15.82;62.17;101481.56;5032349;28;65177;-69
2023/04/10 02:56:43;;;;;;;;;8.33;8.33;;;;;15.77;62.12;101470.06;5035695;28;45488;-69
2023/04/10 02:59:08;;;;;;;;;7.67;7.67;;;;;15.75;62.46;101479.81;5035107;28;47446;-68
2023/04/10 03:01:34;;;;;;;;;9.67;9.33;;;;;15.73;62.13;101462.97;5036017;28;47754;-69
2023/04/10 03:04:01;;;;;;;;;10.00;8.33;;;;;15.70;62.39;101466.50;5036307;28;45308;-69
2023/04/10 03:06:27;;;;;;;;;8.67;8.00;;;;;15.68;62.34;101468.28;5034552;28;45559;-69
2023/04/10 03:08:52;;;;;;;;;6.33;6.33;;;;;15.65;62.75;101462.94;5035816;28;46462;-69
2023/04/10 03:11:18;;;;;;;;;13.00;7.00;;;;;15.64;62.80;101470.03;5035573;28;45414;-69
2023/04/10 03:13:43;;;;;;;;;7.67;7.67;;;;;15.60;62.63;101462.91;5034849;28;63640;-68
2023/04/10 03:16:08;;;;;;;;;7.67;7.67;;;;;15.58;62.63;101462.03;5035334;28;63065;-69
2023/04/10 03:18:34;;;;;;;;;7.67;7.33;;;;;15.57;62.60;101460.25;5035144;28;58606;-69
2023/04/10 03:21:00;;;;;;;;;13.67;9.00;;;;;15.56;62.78;101461.16;5035168;28;45291;-69
2023/04/10 03:23:26;;;;;;;;;6.67;6.67;;;;;15.54;62.79;101454.03;5035346;28;45344;-68
2023/04/10 03:25:55;;;;;;;;;12.33;8.00;;;;;15.52;62.97;101447.84;5034665;28;45536;-68
2023/04/10 03:28:20;;;;;;;;;8.00;8.00;;;;;15.50;63.04;101450.50;5018495;28;46489;-68
2023/04/10 03:30:46;;;;;;;;;8.67;8.67;;;;;15.50;62.81;101449.59;5038678;28;45365;-69
2023/04/10 03:33:11;;;;;;;;;9.67;7.67;;;;;15.48;63.04;101443.38;5035968;28;45426;-69
2023/04/10 03:35:36;;;;;;;;;7.33;7.33;;;;;15.48;63.06;101446.94;5035042;28;63874;-68
2023/04/10 03:38:02;;;;;;;;;8.00;7.67;;;;;15.49;62.77;101443.38;5035112;28;71077;-69
2023/04/10 03:40:27;;;;;;;;;8.67;7.00;;;;;15.42;62.88;101436.28;5034567;28;60326;-68
2023/04/10 03:42:52;;;;;;;;;6.33;6.33;;;;;15.44;63.08;101443.38;5036209;28;45522;-68
2023/04/10 03:45:18;;;;;;;;;8.00;8.00;;;;;15.40;63.09;101433.63;5035570;28;53952;-69
2023/04/10 03:47:43;;;;;;;;;9.00;9.00;;;;;15.37;63.17;101430.06;5034800;28;69453;-68
2023/04/10 03:50:09;;;;;;;;;9.67;7.67;;;;;15.35;62.96;101432.75;5034613;28;62693;-67
2023/04/10 03:52:34;;;;;;;;;7.00;7.00;;;;;15.30;63.02;101428.28;5036222;28;45372;-69
2023/04/10 03:55:00;;;;;;;;;12.33;7.00;;;;;15.25;63.56;101414.97;5035518;28;45718;-68
2023/04/10 03:57:25;;;;;;;;;7.00;6.33;;;;;15.20;63.52;101414.09;5035217;28;67396;-69
2023/04/10 03:59:50;;;;;;;;;7.00;7.00;;;;;15.15;64.08;101415.84;5033786;28;68349;-69
2023/04/10 04:02:16;;;;;;;;;8.33;8.33;;;;;15.13;64.15;101426.50;5035105;28;63358;-69
2023/04/10 04:04:41;;;;;;;;;7.67;7.67;;;;;15.11;64.63;101416.72;5035518;28;45405;-69
2023/04/10 04:07:07;;;;;;;;;8.67;8.67;;;;;15.10;64.29;101412.31;5034751;28;69926;-68
2023/04/10 04:09:33;;;;;;;;;9.00;9.00;;;;;15.09;64.71;101407.88;5036542;28;45457;-68
2023/04/10 04:11:58;;;;;;;;;8.25;6.50;;;;;15.07;64.79;101412.28;5039142;28;45411;-68
2023/04/10 04:14:23;;;;;;;;;9.33;8.00;;;;;15.08;64.50;101408.75;5038476;28;45599;-69
2023/04/10 04:16:49;;;;;;;;;6.67;6.00;;;;;15.07;65.00;101413.16;5038051;28;51305;-68
2023/04/10 04:19:14;;;;;;;;;8.67;7.00;;;;;15.05;65.39;101417.59;5038216;28;69320;-69
2023/04/10 04:21:40;;;;;;;;;8.33;8.00;;;;;15.05;65.68;101430.03;5038479;28;45401;-68
2023/04/10 04:24:05;;;;;;;;;9.33;8.00;;;;;15.04;65.01;101428.25;5037131;28;63084;-69
2023/04/10 04:26:30;;;;;;;;;8.00;7.33;;;;;15.00;65.54;101431.78;5034140;28;70144;-68
2023/04/10 04:28:56;;;;;;;;;7.33;7.00;;;;;15.00;65.71;101429.13;5036399;28;58745;-68
2023/04/10 04:31:23;;;;;;;;;6.67;6.67;;;;;15.02;65.82;101436.22;5037657;28;63984;-68
2023/04/10 04:33:48;;;;;;;;;8.00;8.00;;;;;15.02;65.91;101436.22;5037763;28;46714;-68
2023/04/10 04:36:13;;;;;;;;;8.00;7.33;;;;;15.02;65.94;101430.00;5038120;28;60268;-69
2023/04/10 04:38:39;;;;;;;;;10.00;8.67;;;;;15.03;66.07;101438.00;5038248;28;45542;-69
2023/04/10 04:41:04;;;;;;;;;6.33;6.33;;;;;15.02;66.15;101440.63;5038685;28;45320;-69
2023/04/10 04:43:30;;;;;;;;;6.67;6.67;;;;;15.00;66.11;101440.66;5038332;28;45433;-69
2023/04/10 04:45:55;;;;;;;;;9.00;9.00;;;;;14.98;66.76;101437.09;5038336;28;46558;-68
2023/04/10 04:48:21;;;;;;;;;12.00;8.00;;;;;14.97;66.88;101443.31;5038100;28;52891;-68
2023/04/10 04:50:46;;;;;;;;;12.00;10.00;;;;;14.95;66.84;101450.38;5037652;28;61510;-68
2023/04/10 04:53:12;;;;;;;;;9.00;8.00;;;;;14.95;66.89;101445.06;5037390;28;57549;-69
2023/04/10 04:55:37;;;;;;;;;10.00;8.33;;;;;14.98;67.05;101447.75;5020454;28;46573;-69
2023/04/10 04:58:03;;;;;;;;;9.00;9.00;;;;;14.96;67.10;101449.50;5037414;28;63505;-69
2023/04/10 05:00:28;;;;;;;;;9.00;8.00;;;;;14.97;66.83;101459.28;5039156;28;45786;-69
2023/04/10 05:02:54;;;;;;;;;9.67;8.00;;;;;14.96;67.26;101451.25;5037062;28;54451;-68
2023/04/10 05:05:19;;;;;;;;;7.33;5.00;;;;;14.96;67.60;101452.16;5038026;28;47134;-69
2023/04/10 05:07:44;;;;;;;;;6.67;6.67;;;;;14.93;67.31;101446.84;5037310;28;65304;-68
2023/04/10 05:10:10;;;;;;;;;11.33;10.00;;;;;14.91;67.66;101446.84;5036837;28;53256;-68
2023/04/10 05:12:35;;;;;;;;;8.75;8.75;;;;;14.92;67.88;101453.94;5037799;28;45280;-69
2023/04/10 05:15:00;;;;;;;;;8.33;8.33;;;;;14.91;68.04;101449.50;5037234;28;47418;-69
2023/04/10 05:17:26;;;;;;;;;7.67;7.67;;;;;14.90;68.17;101449.47;5035994;28;61194;-69
2023/04/10 05:19:51;;;;;;;;;9.50;8.00;;;;;14.89;68.50;101453.03;5037552;28;53519;-70
2023/04/10 05:22:16;;;;;;;;;9.00;8.00;;;;;14.85;68.12;101448.56;5035732;28;61745;-68
2023/04/10 05:24:42;;;;;;;;;9.33;9.33;;;;;14.86;68.55;101458.31;5036404;28;70164;-68
2023/04/10 05:27:07;;;;;;;;;6.75;6.50;;;;;14.81;68.67;101452.13;5036525;28;63982;-69
2023/04/10 05:29:33;;;;;;;;;9.67;7.67;;;;;14.81;69.01;101462.75;5029114;28;45869;-68
2023/04/10 05:31:58;;;;;;;;;10.00;8.67;;;;;14.81;69.24;101462.75;5035818;28;45606;-68
2023/04/10 05:34:24;;;;;;;;;12.67;9.67;;;;;14.81;69.32;101466.31;5037223;28;45548;-68
2023/04/10 05:36:49;;;;;;;;;9.00;7.33;;;;;14.80;69.36;101471.59;5037649;28;45331;-68
2023/04/10 05:39:15;;;;;;;;;9.67;9.00;;;;;14.81;69.72;101468.09;5035608;28;45728;-69
2023/04/10 05:41:40;;;;;;;;;9.00;7.50;;;;;14.82;69.30;101464.53;5036382;28;45500;-68
2023/04/10 05:44:06;;;;;;;;;12.67;8.67;;;;;14.82;69.72;101448.59;5036399;28;71099;-68
2023/04/10 05:46:31;;;;;;;;;8.00;8.00;;;;;14.79;69.84;101451.22;5037561;28;45258;-69
2023/04/10 05:48:57;;;;;;;;;9.00;9.00;;;;;14.78;70.40;101458.31;5037443;28;45518;-69
2023/04/10 05:51:22;;;;;;;;;9.00;7.75;;;;;14.79;70.66;101453.88;5037299;28;45483;-68
2023/04/10 05:53:49;;;;;;;;;8.00;8.00;;;;;14.80;70.90;101460.97;5035912;28;68442;-68
2023/04/10 05:56:14;;;;;;;;;12.67;9.00;;;;;14.81;70.80;101454.78;5036369;28;45436;-68
2023/04/10 05:58:39;;;;;;;;;14.00;8.33;;;;;14.83;71.13;101453.00;5036940;28;45269;-69
2023/04/10 06:01:05;;;;;;;;;9.50;9.00;;;;;14.82;71.17;101459.22;5036106;28;58362;-69
2023/04/10 06:03:30;;;;;;;;;7.75;7.75;;;;;14.84;71.00;101455.66;5036678;28;46289;-68
2023/04/10 06:05:56;;;;;;;;;10.00;8.00;;;;;14.86;71.29;101450.34;5036725;28;58030;-70
2023/04/10 06:08:22;;;;;;;;;9.67;7.67;;;;;14.89;71.94;101461.88;5037003;28;45462;-69
2023/04/10 06:10:47;;;;;;;;;6.67;6.67;;;;;14.92;72.08;101456.59;5037299;28;45418;-69
2023/04/10 06:13:13;;;;;;;;;11.00;10.00;;;;;14.95;72.41;101450.38;5018495;28;46623;-68
2023/04/10 06:15:39;;;;;;;;;10.33;10.33;;;;;15.01;72.04;101461.03;5035501;28;45332;-68
2023/04/10 06:18:04;;;;;;;;;8.00;8.00;;;;;15.03;72.03;101459.28;5036696;28;45345;-68
2023/04/10 06:20:30;;;;;;;;;13.33;10.00;;;;;15.04;72.17;101455.72;5035534;28;45411;-69
2023/04/10 06:22:57;;;;;;;;;9.50;8.50;;;;;15.11;72.50;101470.81;5035781;28;66220;-69
2023/04/10 06:25:22;;;;;;;;;8.25;8.25;;;;;15.14;72.50;101462.84;5035434;28;45531;-69
2023/04/10 06:27:47;;;;;;;;;9.67;9.67;;;;;15.20;72.32;101465.53;5036808;28;56906;-69
2023/04/10 06:30:13;;;;;;;;;10.50;9.00;;;;;15.23;72.68;101466.41;5035860;28;61715;-69
2023/04/10 06:32:38;;;;;;;;;9.33;9.00;;;;;15.26;72.70;101466.41;5034950;28;70678;-68
2023/04/10 06:35:04;;;;;;;;;5.67;4.00;;;;;15.29;72.45;101466.44;5035790;28;63032;-68
2023/04/10 06:37:33;;;;;;;;;10.00;8.00;;;;;15.30;72.44;101454.91;5036353;28;46874;-69
2023/04/10 06:40:24;;;;;;;;;8.67;8.67;;;;;15.41;72.32;101462.00;5036918;28;45606;-69
2023/04/10 06:42:50;;;;;;;;;7.00;7.00;;;;;15.43;72.53;101454.03;5032407;28;46586;-69
2023/04/10 06:45:15;;;;;;;;;8.00;7.33;;;;;15.50;72.14;101454.91;5032090;28;67096;-70
2023/04/10 06:47:40;;;;;;;;;10.67;7.67;;;;;15.53;72.00;101444.28;5031386;28;51771;-69
2023/04/10 06:50:06;;;;;;;;;7.00;7.00;;;;;15.56;71.99;101445.19;5035706;28;45454;-69
2023/04/10 06:52:31;;;;;;;;;9.67;7.33;;;;;15.58;72.14;101439.84;5033953;28;45604;-69
2023/04/10 06:54:57;;;;;;;;;11.00;8.33;;;;;15.67;72.32;101453.19;5034359;28;46654;-69
2023/04/10 06:57:22;;;;;;;;;8.67;8.67;;;;;15.71;72.74;101460.28;5035119;28;45459;-70
2023/04/10 06:59:47;;;;;;;;;8.00;8.00;;;;;15.76;72.08;101442.53;5031960;28;61107;-69
2023/04/10 07:02:13;;;;;;;;;8.67;8.00;;;;;15.81;71.87;101435.41;5035495;28;55124;-70
2023/04/10 07:04:38;;;;;;;;;9.00;8.67;;;;;15.85;71.62;101425.66;5037432;28;45387;-69
2023/04/10 07:07:08;;;;;;;;;16.33;11.00;;;;;15.91;71.61;101433.63;5034847;28;62380;-69
2023/04/10 07:09:33;;;;;;;;;7.00;7.00;;;;;15.98;71.55;101432.75;5036038;28;45462;-70
2023/04/10 07:11:59;;;;;;;;;7.00;7.00;;;;;16.03;71.52;101422.94;5035265;28;48293;-70
2023/04/10 07:14:24;;;;;;;;;9.00;7.67;;;;;16.07;71.33;101414.06;5033622;28;45439;-69
2023/04/10 07:16:50;;;;;;;;;11.67;10.00;;;;;16.12;70.98;101417.63;5034174;28;45843;-69
2023/04/10 07:19:15;;;;;;;;;9.00;9.00;;;;;16.12;70.90;101414.94;5033400;28;45608;-69
2023/04/10 07:21:40;;;;;;;;;7.67;6.00;;;;;16.15;70.66;101414.97;5028038;28;53676;-70
2023/04/10 07:24:06;;;;;;;;;10.33;9.00;;;;;16.17;70.83;101410.50;5025170;28;65359;-70
2023/04/10 07:26:31;;;;;;;;;9.00;8.00;;;;;16.20;70.62;101401.63;5035146;28;45480;-69
2023/04/10 07:28:57;;;;;;;;;7.00;7.00;;;;;16.21;70.56;101388.28;5026784;28;63487;-69
2023/04/10 07:31:22;;;;;;;;;9.33;8.00;;;;;16.29;70.38;101390.91;5033115;28;69319;-69
2023/04/10 07:33:48;;;;;;;;;8.00;8.00;;;;;16.35;70.11;101390.91;5033878;28;45446;-69
2023/04/10 07:36:13;;;;;;;;;8.00;7.67;;;;;16.42;69.92;101387.31;5034342;28;56591;-69
2023/04/10 07:38:39;;;;;;;;;10.00;10.00;;;;;16.47;69.67;101379.31;5035057;28;59383;-70
2023/04/10 07:41:05;;;;;;;;;7.00;7.00;;;;;16.55;69.51;101385.47;5035141;28;47506;-70
2023/04/10 07:43:30;;;;;;;;;8.00;8.00;;;;;16.62;69.25;101397.00;5034015;28;45361;-70
2023/04/10 07:45:56;;;;;;;;;9.00;7.67;;;;;16.67;69.05;101398.78;5035035;28;45253;-70
2023/04/10 07:48:21;;;;;;;;;7.67;6.00;;;;;16.74;68.65;101396.97;5035779;28;45304;-70
2023/04/10 07:50:47;;;;;;;;;9.00;8.00;;;;;16.80;68.56;101388.94;5035616;28;45524;-70
2023/04/10 07:53:12;;;;;;;;;9.33;9.00;;;;;16.90;68.18;101389.78;5034356;28;45529;-70
2023/04/10 07:55:39;;;;;;;;;9.67;7.33;;;;;16.92;68.21;101377.31;5034369;28;64280;-70
2023/04/10 07:58:05;;;;;;;;;8.67;7.33;;;;;17.00;67.83;101373.72;5031163;28;45498;-69
2023/04/10 08:00:31;;;;;;;;;9.67;8.33;;;;;17.05;67.94;101384.34;5033651;28;46670;-70
2023/04/10 08:02:56;;;;;;;;;9.00;7.67;;;;;17.10;67.52;101376.28;5015186;28;45534;-69
2023/04/10 08:05:21;;;;;;;;;7.33;7.33;;;;;17.21;67.28;101401.16;5031965;28;64079;-69
2023/04/10 08:07:47;;;;;;;;;12.00;8.00;;;;;17.26;66.99;101410.88;5033468;28;62986;-69
2023/04/10 08:10:12;;;;;;;;;11.67;8.67;;;;;17.29;66.54;101409.97;5033166;28;68906;-70
2023/04/10 08:12:37;;;;;;;;;8.00;8.00;;;;;17.37;66.66;101417.94;5033741;28;45353;-70
2023/04/10 08:15:03;;;;;;;;;9.00;9.00;;;;;17.44;66.90;101400.97;5034203;28;45612;-70
2023/04/10 08:17:28;;;;;;;;;10.00;8.33;;;;;17.59;66.62;101416.84;5034738;28;45447;-70
2023/04/10 08:19:54;;;;;;;;;10.00;9.33;;;;;17.66;66.16;101404.31;5034168;28;46485;-70
2023/04/10 08:22:19;;;;;;;;;8.00;8.00;;;;;17.75;66.34;101414.97;5034614;28;45511;-70
2023/04/10 08:24:44;;;;;;;;;8.33;8.33;;;;;17.80;65.96;101414.03;5033638;28;64048;-70
2023/04/10 08:27:10;;;;;;;;;9.00;9.00;;;;;17.79;65.90;101393.56;5028793;28;48664;-69
2023/04/10 08:29:35;;;;;;;;;12.00;9.00;;;;;17.84;66.09;101413.97;5034093;28;69524;-69
2023/04/10 08:32:01;;;;;;;;;10.33;10.00;;;;;17.84;65.84;101396.16;5032308;28;63292;-69
2023/04/10 08:34:26;;;;;;;;;9.00;9.00;;;;;17.88;66.10;101408.59;5034566;28;45391;-70
2023/04/10 08:36:53;;;;;;;;;6.00;6.00;;;;;17.89;65.88;101407.69;5034802;28;45375;-70
2023/04/10 08:39:18;;;;;;;;;9.67;8.00;;;;;17.91;65.22;101405.03;5033935;28;46743;-70
2023/04/10 08:41:44;;;;;;;;;11.00;10.00;;;;;17.90;65.60;101404.13;5032814;28;63998;-70
2023/04/10 08:44:51;;;;;;;;;6.00;6.00;;;;;17.92;66.01;101407.66;5033007;28;45621;-70
2023/04/10 08:47:20;;;;;;;;;9.00;7.67;;;;;17.99;67.03;101408.47;5028378;28;45375;-71
2023/04/10 08:50:02;;;;;;;;;8.00;7.00;;;;;18.00;67.16;101405.81;5027418;28;47560;-71
2023/04/10 08:52:29;;;;;;;;;6.67;6.67;;;;;18.05;67.29;101411.09;5028055;28;45520;-70
2023/04/10 08:54:57;;;;;;;;;7.33;6.33;;;;;18.05;68.01;101416.44;5021871;28;45484;-68
2023/04/10 08:57:23;;;;;;;;;7.00;7.00;;;;;18.06;68.63;101416.44;5036369;28;45397;-69
2023/04/10 08:59:50;;;;;;;;;8.33;7.33;;;;;18.08;69.15;101404.84;5029472;28;46507;-69
2023/04/10 09:02:16;;;;;;;;;9.00;8.00;;;;;18.09;69.89;101399.47;5038299;28;45393;-68
2023/04/10 09:04:47;;;;;;;;;6.67;6.67;;;;;18.19;70.67;101394.91;5031709;28;45472;-69
2023/04/10 09:07:13;;;;;;;;;6.00;6.00;;;;;18.26;71.17;101393.94;5034854;28;45526;-69
2023/04/10 09:09:39;;;;;;;;;9.33;7.00;;;;;18.30;72.71;101383.19;5037402;28;73366;-69
2023/04/10 09:12:05;;;;;;;;;5.33;5.33;;;;;18.39;72.84;101389.34;5038447;28;45483;-69
2023/04/10 09:14:32;;;;;;;;;7.00;7.00;;;;;18.44;72.43;101388.38;5037139;28;45646;-70
2023/04/10 09:17:17;;;;;;;;;6.67;6.33;;;;;18.48;72.84;101394.56;5038589;28;45473;-71
2023/04/10 09:19:45;;;;;;;;;7.67;6.00;;;;;18.48;72.54;101381.19;5023309;28;47312;-70
2023/04/10 09:22:11;;;;;;;;;5.33;5.33;;;;;18.48;72.30;101376.75;5038271;28;45270;-71
2023/04/10 09:24:39;;;;;;;;;6.00;6.00;;;;;18.41;71.56;101371.47;5037772;28;45147;-71
2023/04/10 09:27:05;;;;;;;;;5.33;4.00;;;;;18.38;70.78;101368.88;5036793;28;45484;-69
2023/04/10 09:29:43;;;;;;;;;5.67;5.67;;;;;18.43;70.27;101372.31;5037553;28;46686;-71
2023/04/10 09:32:10;;;;;;;;;5.00;5.00;;;;;18.51;70.50;101367.78;5035153;28;45444;-72
2023/04/10 09:34:51;;;;;;;;;6.67;4.00;;;;;18.61;70.02;101355.19;5037284;28;45490;-72
2023/04/10 09:37:19;;;;;;;;;4.00;4.00;;;;;18.66;70.05;101356.88;5037658;28;45430;-72
2023/04/10 09:39:45;;;;;;;;;6.67;6.67;;;;;18.69;69.38;101342.59;5037967;28;47423;-72
2023/04/10 09:42:11;;;;;;;;;7.00;7.00;;;;;18.66;68.98;101337.28;5038252;28;45196;-71
2023/04/10 09:44:38;;;;;;;;;5.33;5.00;;;;;18.64;68.68;101347.97;5036259;28;45523;-71
2023/04/10 09:47:21;;;;;;;;;6.67;5.33;;;;;18.66;68.26;101338.16;5036053;28;45418;-70
2023/04/10 09:49:51;;;;;;;;;5.67;4.00;;;;;18.69;68.59;101335.44;5037606;28;47450;-71
2023/04/10 09:52:27;;;;;;;;;6.00;6.00;;;;;18.76;68.62;101338.94;5038084;28;45407;-71
2023/04/10 09:54:53;;;;;;;;;7.00;7.00;;;;;18.79;68.54;101336.22;5037747;28;45455;-70
2023/04/10 09:57:19;;;;;;;;;4.67;4.67;;;;;18.85;67.48;101338.78;5034336;28;45226;-70
2023/04/10 09:59:50;;;;;;;;;5.00;5.00;;;;;18.82;67.25;101329.03;5034549;28;46173;-70
2023/04/10 10:02:17;;;;;;;;;6.00;5.00;;;;;18.82;67.10;101329.03;5029213;28;45425;-71
2023/04/10 10:04:44;;;;;;;;;4.67;4.67;;;;;18.78;66.36;101332.66;5032597;28;45788;-70
2023/04/10 10:07:10;;;;;;;;;6.00;6.00;;;;;18.80;66.22;101330.84;5034492;28;45278;-70
2023/04/10 10:09:36;;;;;;;;;5.00;5.00;;;;;18.81;66.10;101335.28;5036305;28;47377;-71
2023/04/10 10:12:02;;;;;;;;;6.00;6.00;;;;;18.81;66.59;101326.38;5019762;28;45329;-71
2023/04/10 10:14:29;;;;;;;;;8.33;5.67;;;;;18.79;66.44;101329.06;5035732;28;45478;-70
2023/04/10 10:16:56;;;;;;;;;7.00;5.33;;;;;18.75;66.03;101323.78;5019466;28;51417;-71
2023/04/10 10:19:32;;;;;;;;;3.00;3.00;;;;;18.68;65.60;101320.31;5024390;28;46542;-70
2023/04/10 10:21:59;;;;;;;;;5.00;3.00;;;;;18.61;64.67;101318.63;5133705;22;47417;-73
2023/04/10 10:24:27;;;;;;;;;3.33;3.33;;;;;18.54;64.56;101308.91;5016105;28;45502;-71
2023/04/10 10:26:53;;;;;;;;;4.00;4.00;;;;;18.53;64.23;101316.03;5017560;28;45552;-70
2023/04/10 10:29:20;;;;;;;;;4.00;4.00;;;;;18.52;64.27;101306.25;5016448;28;45436;-70
2023/04/10 10:31:46;;;;;;;;;5.00;4.00;;;;;18.51;63.59;101320.53;5015071;28;63901;-70
2023/04/10 10:34:12;;;;;;;;;6.00;4.00;;;;;18.49;63.15;101322.34;5016000;28;45433;-70
2023/04/10 10:36:38;;;;;;;;;3.00;3.00;;;;;18.44;62.48;101313.50;5017308;28;45572;-71
2023/04/10 10:39:13;;;;;;;;;4.33;4.33;;;;;18.40;62.24;101295.72;5016560;28;47714;-71
2023/04/10 10:41:53;;;;;;;;;3.00;3.00;;;;;18.47;62.56;101296.50;5017191;28;45399;-71
2023/04/10 10:44:26;;;;;;;;;6.00;4.00;;;;;18.55;62.85;101291.97;5017069;28;45325;-71
2023/04/10 10:47:03;;;;;;;;;4.00;4.00;;;;;18.62;62.48;101296.31;5003282;28;45330;-71
2023/04/10 10:49:52;;;;;;;;;4.00;4.00;;;;;18.71;61.80;101288.19;5010464;28;45553;-71
2023/04/10 10:52:35;;;;;;;;;4.00;4.00;;;;;18.77;61.71;101285.41;5015499;28;45511;-71
2023/04/10 10:55:20;;;;;;;;;5.67;4.00;;;;;18.83;60.67;101282.63;5016575;28;45524;-70
2023/04/10 10:57:53;;;;;;;;;3.33;3.33;;;;;18.88;60.11;101281.69;5016783;28;45630;-71
2023/04/10 11:00:22;;;;;;;;;4.00;4.00;;;;;18.90;59.59;101291.44;5016241;28;46148;-70
2023/04/10 11:03:05;;;;;;;;;4.00;4.00;;;;;18.91;59.89;101292.31;5016154;28;45623;-70
2023/04/10 11:05:51;;;;;;;;;3.33;3.33;;;;;18.90;59.23;101294.09;5015956;28;45334;-70
2023/04/10 11:08:17;;;;;;;;;3.67;3.67;;;;;18.91;59.23;101276.25;5015544;28;45378;-71
2023/04/10 11:11:05;;;;;;;;;5.33;3.33;;;;;18.99;60.63;101283.25;5015270;28;47617;-71
2023/04/10 11:13:38;;;;;;;;;3.00;3.00;;;;;19.11;61.78;101287.53;5011554;28;45495;-71
2023/04/10 11:16:05;;;;;;;;;4.00;4.00;;;;;19.22;62.91;101284.66;5015286;28;45472;-71
2023/04/10 11:18:46;;;;;;;;;4.33;4.33;;;;;19.33;62.29;101280.91;5015285;28;45512;-71
2023/04/10 11:21:12;;;;;;;;;4.00;4.00;;;;;19.42;60.74;101270.94;5016452;28;45712;-71
2023/04/10 11:23:38;;;;;;;;;3.33;3.33;;;;;19.41;61.54;101251.28;5017806;28;45468;-71